Terminal Aerodrome Forecast
Issued by NWS Shreveport, LA

Home | Current Version | Previous Version | Text Only | Print | Product List | Glossary On
Versions: 1 2 3 4 5 6 7 8 9 10 11 12 13 14 15 16 17 18 19 20 21 22
000
FTUS44 KSHV 232341
TAFLFK
TAF
KLFK 232341Z 2400/2424 12010KT P6SM VCTS SCT050CB OVC100
     FM240200 15008KT P6SM BKN100
     FM240600 16009KT P6SM OVC015
     FM241300 15010KT P6SM VCTS BKN025CB
     FM241500 16014G23KT 5SM -TSRA BR OVC025CB=

USA.gov is the U.S. government's official web portal to all federal, state and local government web resources and services.